Time;durP1;ratioP1;P1;durP2;ratioP2;P2;SDS_P1;SDS_P2;PMS_P1;PMS_P2;Temp;Humidity;BMP_temperature;BMP_pressure;BME280_temperature;BME280_humidity;BME280_pressure;Samples;Min_cycle;Max_cycle;Signal;HPM_P1;HPM_P2
2022/11/21 00:01:40;;;;;;;;;;;;;;;28.54;30.79;100058.91;4980143;28;1142;-32
2022/11/21 00:04:06;;;;;;;;;;;;;;;28.73;30.92;100059.91;4980227;28;1201;-32
2022/11/21 00:06:31;;;;;;;;;;;;;;;28.93;30.55;100059.88;4980457;28;1118;-34
2022/11/21 00:08:56;;;;;;;;;;;;;;;28.49;30.75;100054.13;4980466;28;1907;-36
2022/11/21 00:11:22;;;;;;;;;;;;;;;28.16;31.90;100036.00;4989332;28;1126;-31
2022/11/21 00:13:47;;;;;;;;;;;;;;;28.72;30.81;100028.50;4984584;28;1172;-35
2022/11/21 00:16:13;;;;;;;;;;;;;;;28.44;30.90;100024.16;4980377;28;852;-35
2022/11/21 00:18:38;;;;;;;;;;;;;;;28.41;31.13;100024.59;4980697;28;1161;-34
2022/11/21 00:21:04;;;;;;;;;;;;;;;28.53;31.09;100016.69;4979675;28;1161;-32
2022/11/21 00:23:30;;;;;;;;;;;;;;;28.95;30.48;100016.34;4979854;28;1340;-30
2022/11/21 00:25:55;;;;;;;;;;;;;;;28.54;30.80;100016.47;4980258;28;1279;-32
2022/11/21 00:28:20;;;;;;;;;;;;;;;28.30;31.40;100002.50;4979936;28;1919;-33
2022/11/21 00:30:46;;;;;;;;;;;;;;;28.76;30.85;100009.97;4979852;28;1154;-34
2022/11/21 00:33:11;;;;;;;;;;;;;;;28.60;30.58;100006.66;4980020;28;1483;-37
2022/11/21 00:35:36;;;;;;;;;;;;;;;28.45;31.16;99994.19;4980068;28;1110;-31
2022/11/21 00:38:01;;;;;;;;;;;;;;;28.68;30.64;99982.06;4979647;28;1228;-34
2022/11/21 00:40:27;;;;;;;;;;;;;;;28.98;30.22;99972.63;4979495;28;851;-35
2022/11/21 00:42:52;;;;;;;;;;;;;;;28.33;31.04;99975.06;4979813;28;1158;-32
2022/11/21 00:45:18;;;;;;;;;;;;;;;28.33;31.38;99966.13;4979685;28;1197;-34
2022/11/21 00:47:43;;;;;;;;;;;;;;;28.69;30.72;99958.56;4979795;28;1902;-34
2022/11/21 00:50:08;;;;;;;;;;;;;;;28.52;30.67;99958.19;4980012;28;1110;-35
2022/11/21 00:52:34;;;;;;;;;;;;;;;28.33;31.49;99944.47;4978578;28;1220;-34
2022/11/21 00:54:59;;;;;;;;;;;;;;;28.59;31.06;99943.59;4979686;28;1154;-34
2022/11/21 00:57:24;;;;;;;;;;;;;;;29.03;30.44;99928.69;4979688;28;1232;-32
2022/11/21 00:59:49;;;;;;;;;;;;;;;28.42;31.05;99927.00;4979485;28;1189;-32
2022/11/21 01:02:15;;;;;;;;;;;;;;;28.11;31.52;99901.44;4979457;28;1149;-37
2022/11/21 01:04:40;;;;;;;;;;;;;;;28.69;30.78;99882.78;4979280;28;1150;-32
2022/11/21 01:07:05;;;;;;;;;;;;;;;28.66;30.56;99866.97;4979229;28;1898;-32
2022/11/21 01:09:31;;;;;;;;;;;;;;;28.39;31.05;99870.63;4979265;28;1048;-32
2022/11/21 01:11:56;;;;;;;;;;;;;;;28.67;30.93;99877.59;4979086;28;1208;-34
2022/11/21 01:14:21;;;;;;;;;;;;;;;28.95;30.32;99867.44;4979036;28;1209;-32
2022/11/21 01:16:47;;;;;;;;;;;;;;;28.41;30.90;99859.59;4979413;28;837;-35
2022/11/21 01:19:12;;;;;;;;;;;;;;;28.27;31.13;99870.41;4983325;28;1177;-32
2022/11/21 01:21:38;;;;;;;;;;;;;;;28.82;30.58;99855.66;4988407;28;1145;-34
2022/11/21 01:24:03;;;;;;;;;;;;;;;28.74;30.43;99845.09;4978679;28;1165;-37
2022/11/21 01:26:29;;;;;;;;;;;;;;;28.42;30.89;99856.66;4979602;28;1157;-32
2022/11/21 01:28:54;;;;;;;;;;;;;;;28.72;30.66;99848.00;4978410;28;1907;-35
2022/11/21 01:31:20;;;;;;;;;;;;;;;28.97;30.32;99846.44;4979001;28;1203;-35
2022/11/21 01:33:46;;;;;;;;;;;;;;;28.40;31.21;99845.22;4978685;28;1246;-34
2022/11/21 01:36:12;;;;;;;;;;;;;;;28.38;31.23;99838.38;4978584;28;1161;-31
2022/11/21 01:38:38;;;;;;;;;;;;;;;28.75;30.65;99838.63;4978964;28;1209;-35
2022/11/21 01:41:03;;;;;;;;;;;;;;;28.48;30.50;99825.22;4978516;28;1158;-34
2022/11/21 01:43:28;;;;;;;;;;;;;;;28.47;31.04;99829.81;4978435;28;1137;-31
2022/11/21 01:45:54;;;;;;;;;;;;;;;28.80;30.55;99811.72;4979359;28;1138;-36
2022/11/21 01:48:21;;;;;;;;;;;;;;;28.72;30.55;99817.41;4978376;28;1957;-36
2022/11/21 01:50:46;;;;;;;;;;;;;;;28.23;31.18;99810.50;4978208;28;1197;-31
2022/11/21 01:53:11;;;;;;;;;;;;;;;28.48;31.08;99800.88;4978089;28;1201;-34
2022/11/21 01:55:37;;;;;;;;;;;;;;;28.83;30.57;99818.56;4978081;28;1161;-32
2022/11/21 01:58:02;;;;;;;;;;;;;;;28.31;30.88;99806.72;4961125;28;1213;-33
2022/11/21 02:00:28;;;;;;;;;;;;;;;28.21;31.41;99804.47;4978452;28;1173;-33
2022/11/21 02:02:58;;;;;;;;;;;;;;;28.83;30.62;99821.28;4961016;28;1178;-34
2022/11/21 02:05:25;;;;;;;;;;;;;;;28.41;31.06;99819.03;4971894;28;876;-32
2022/11/21 02:07:50;;;;;;;;;;;;;;;28.13;31.62;99818.22;4960736;28;1902;-34
2022/11/21 02:10:16;;;;;;;;;;;;;;;28.71;30.79;99813.03;4960813;28;1173;-32
2022/11/21 02:12:56;;;;;;;;;;;;;;;28.56;30.53;99810.63;4960841;28;1150;-33
2022/11/21 02:15:22;;;;;;;;;;;;;;;28.23;31.54;99810.50;4978018;28;1157;-32
2022/11/21 02:17:48;;;;;;;;;;;;;;;28.60;30.93;99809.13;4960309;28;1200;-33
2022/11/21 02:20:14;;;;;;;;;;;;;;;28.62;30.46;99814.31;4977665;28;1184;-36
2022/11/21 02:22:43;;;;;;;;;;;;;;;28.03;31.56;99802.47;4960638;28;1209;-35
2022/11/21 02:25:13;;;;;;;;;;;;;;;28.44;31.09;99805.91;4971642;28;1216;-35
2022/11/21 02:27:38;;;;;;;;;;;;;;;28.81;30.48;99799.84;4980222;28;1977;-35
2022/11/21 02:30:04;;;;;;;;;;;;;;;28.20;31.29;99802.00;4978070;28;898;-32
2022/11/21 02:32:36;;;;;;;;;;;;;;;28.15;31.44;99797.22;4977908;28;1137;-36
2022/11/21 02:35:01;;;;;;;;;;;;;;;28.79;30.70;99788.44;4977478;28;1161;-32
2022/11/21 02:37:27;;;;;;;;;;;;;;;28.33;30.99;99784.91;4977967;28;1142;-32
2022/11/21 02:39:52;;;;;;;;;;;;;;;28.08;31.43;99788.28;4960751;28;1217;-33
2022/11/21 02:42:20;;;;;;;;;;;;;;;28.59;31.02;99783.94;4977466;28;964;-34
2022/11/21 02:45:15;;;;;;;;;;;;;;;28.37;30.86;99783.44;4977572;28;1521;-32
2022/11/21 02:47:40;;;;;;;;;;;;;;;27.99;31.77;99783.13;4968888;28;2143;-35
2022/11/21 02:50:06;;;;;;;;;;;;;;;28.57;31.17;99761.72;4960689;28;1205;-34
2022/11/21 02:52:31;;;;;;;;;;;;;;;28.35;31.13;99756.63;4977464;28;1243;-34
2022/11/21 02:54:56;;;;;;;;;;;;;;;27.95;31.34;99754.03;4977822;28;1225;-34
2022/11/21 02:57:21;;;;;;;;;;;;;;;28.52;31.07;99760.69;4977062;28;1145;-34
2022/11/21 02:59:47;;;;;;;;;;;;;;;28.55;30.89;99747.56;4977639;28;1204;-32
2022/11/21 03:02:12;;;;;;;;;;;;;;;28.19;31.49;99748.97;4977781;28;1150;-36
2022/11/21 03:04:37;;;;;;;;;;;;;;;28.60;30.92;99745.03;4976885;28;1142;-32
2022/11/21 03:07:03;;;;;;;;;;;;;;;28.65;30.39;99721.88;4977118;28;1252;-36
2022/11/21 03:09:28;;;;;;;;;;;;;;;27.97;31.44;99723.06;4977225;28;1894;-32
2022/11/21 03:11:53;;;;;;;;;;;;;;;28.35;31.21;99710.63;4977676;28;1142;-35
2022/11/21 03:14:19;;;;;;;;;;;;;;;28.73;30.78;99706.22;4978091;28;1142;-32
2022/11/21 03:16:44;;;;;;;;;;;;;;;28.11;31.52;99701.38;4978529;28;1201;-30
2022/11/21 03:19:09;;;;;;;;;;;;;;;28.09;31.47;99696.16;4981161;28;1126;-30
2022/11/21 03:21:34;;;;;;;;;;;;;;;28.90;30.55;99700.28;4981455;28;1186;-35
2022/11/21 03:24:00;;;;;;;;;;;;;;;28.18;31.25;99690.50;4981132;28;1229;-32
2022/11/21 03:26:25;;;;;;;;;;;;;;;27.96;31.80;99690.84;4980855;28;1228;-36
2022/11/21 03:28:50;;;;;;;;;;;;;;;28.60;31.02;99685.50;4980716;28;1960;-32
2022/11/21 03:31:16;;;;;;;;;;;;;;;28.32;31.23;99685.88;4981475;28;1165;-32
2022/11/21 03:33:41;;;;;;;;;;;;;;;28.20;31.47;99686.56;4981187;28;1098;-31
2022/11/21 03:36:06;;;;;;;;;;;;;;;28.67;30.78;99680.06;4980822;28;1173;-33
2022/11/21 03:38:31;;;;;;;;;;;;;;;28.32;31.14;99675.88;4981038;28;1239;-32
2022/11/21 03:40:57;;;;;;;;;;;;;;;28.02;31.86;99672.91;4980610;28;1133;-34
2022/11/21 03:43:22;;;;;;;;;;;;;;;28.55;30.90;99663.69;4963290;28;1213;-34
2022/11/21 03:45:47;;;;;;;;;;;;;;;28.79;30.30;99663.94;4981555;28;1051;-32
2022/11/21 03:48:13;;;;;;;;;;;;;;;28.16;31.48;99660.19;4980546;28;1958;-32
2022/11/21 03:50:41;;;;;;;;;;;;;;;28.17;31.60;99651.84;4980510;28;1110;-34
2022/11/21 03:53:06;;;;;;;;;;;;;;;28.85;30.18;99656.78;4980564;28;1162;-32
2022/11/21 03:55:31;;;;;;;;;;;;;;;28.09;31.57;99644.00;4980924;28;1130;-33
2022/11/21 03:57:56;;;;;;;;;;;;;;;27.95;31.76;99644.06;4980309;28;1169;-30
2022/11/21 04:00:22;;;;;;;;;;;;;;;28.84;30.51;99644.31;4981255;28;1117;-31
2022/11/21 04:02:47;;;;;;;;;;;;;;;28.25;31.22;99634.53;4980993;28;1237;-34
2022/11/21 04:05:12;;;;;;;;;;;;;;;28.34;31.11;99637.84;4980224;28;1119;-33
2022/11/21 04:07:38;;;;;;;;;;;;;;;29.41;29.57;99632.50;4979565;28;1898;-32
2022/11/21 04:10:03;;;;;;;;;;;;;;;28.40;30.85;99639.66;4979828;28;1197;-34
2022/11/21 04:12:28;;;;;;;;;;;;;;;27.59;32.07;99626.53;4979787;28;1129;-31
2022/11/21 04:14:53;;;;;;;;;;;;;;;28.80;30.66;99629.56;4979900;28;1157;-30
2022/11/21 04:17:19;;;;;;;;;;;;;;;29.37;29.53;99622.38;4979950;28;1074;-32
2022/11/21 04:19:44;;;;;;;;;;;;;;;29.67;29.00;99632.47;4979702;28;1189;-32
2022/11/21 04:22:09;;;;;;;;;;;;;;;29.46;29.10;99621.84;4980064;28;1449;-31
2022/11/21 04:24:35;;;;;;;;;;;;;;;28.49;30.17;99621.28;4979955;28;1153;-30
2022/11/21 04:27:00;;;;;;;;;;;;;;;28.64;30.40;99622.84;4979563;28;1098;-31
2022/11/21 04:29:25;;;;;;;;;;;;;;;29.16;29.58;99606.31;4979300;28;1911;-32
2022/11/21 04:31:50;;;;;;;;;;;;;;;29.31;29.16;99597.03;4978139;28;2463;-29
2022/11/21 04:34:16;;;;;;;;;;;;;;;27.49;31.77;99605.38;4976241;28;1083;-31
2022/11/21 04:36:41;;;;;;;;;;;;;;;26.41;33.56;99598.22;4979833;28;1070;-32
2022/11/21 04:39:06;;;;;;;;;;;;;;;25.81;34.92;99597.03;4979578;28;1157;-32
2022/11/21 04:41:31;;;;;;;;;;;;;;;27.83;30.79;99581.75;4979233;28;1185;-33
2022/11/21 04:43:57;;;;;;;;;;;;;;;27.43;31.96;99574.63;4979638;28;1101;-29
2022/11/21 04:46:22;;;;;;;;;;;;;;;27.42;32.25;99580.25;4979851;28;1083;-31
2022/11/21 04:48:47;;;;;;;;;;;;;;;27.24;32.57;99579.88;4979477;28;1959;-33
2022/11/21 04:51:13;;;;;;;;;;;;;;;27.22;32.82;99579.28;4977214;28;1422;-28
2022/11/21 04:53:38;;;;;;;;;;;;;;;26.88;32.83;99576.63;4978772;28;1401;-37
2022/11/21 04:56:04;;;;;;;;;;;;;;;27.63;32.47;99571.00;4980012;28;991;-36
2022/11/21 04:58:29;;;;;;;;;;;;;;;27.52;32.48;99556.31;4978979;28;1290;-38
2022/11/21 05:00:55;;;;;;;;;;;;;;;27.69;32.17;99556.69;4979071;28;1165;-38
2022/11/21 05:03:20;;;;;;;;;;;;;;;27.51;32.30;99568.16;4978452;28;1840;-39
2022/11/21 05:05:45;;;;;;;;;;;;;;;26.12;34.41;99571.41;4979217;28;1093;-38
2022/11/21 05:08:10;;;;;;;;;;;;;;;25.61;35.43;99578.09;4968380;28;1895;-41
2022/11/21 05:13:19;;;;;;;;;;;;;;;25.31;35.64;99580.03;4975493;28;1119;-38
2022/11/21 05:13:21;;;;;;;;;;;;;;;24.97;36.65;99580.88;4972104;28;1366;-33
2022/11/21 05:15:50;;;;;;;;;;;;;;;25.43;36.09;99574.06;4977080;28;1185;-34
2022/11/21 05:18:15;;;;;;;;;;;;;;;26.08;34.53;99570.16;4978818;28;1181;-32
2022/11/21 05:20:41;;;;;;;;;;;;;;;26.46;33.73;99557.97;4979007;28;1208;-32
2022/11/21 05:23:06;;;;;;;;;;;;;;;26.59;33.49;99550.94;4978980;28;1172;-33
2022/11/21 05:25:31;;;;;;;;;;;;;;;26.74;33.36;99542.63;4978876;28;1162;-31
2022/11/21 05:27:57;;;;;;;;;;;;;;;26.78;33.43;99538.44;4978746;28;1903;-34
2022/11/21 05:30:22;;;;;;;;;;;;;;;26.84;33.15;99545.69;4978488;28;1110;-32
2022/11/21 05:32:47;;;;;;;;;;;;;;;26.86;33.12;99542.81;4983831;28;1908;-32
2022/11/21 05:35:12;;;;;;;;;;;;;;;26.85;33.07;99535.72;4978756;28;1137;-35
2022/11/21 05:37:38;;;;;;;;;;;;;;;26.85;33.43;99536.56;4978607;28;1359;-32
2022/11/21 05:40:03;;;;;;;;;;;;;;;26.67;33.58;99542.63;4977866;28;1094;-33
2022/11/21 05:45:12;;;;;;;;;;;;;;;26.11;31.88;99552.75;4974842;28;960;-34
2022/11/21 05:47:40;;;;;;;;;;;;;;;26.30;33.60;99553.78;4976654;28;1957;-30
2022/11/21 05:50:05;;;;;;;;;;;;;;;26.39;33.42;99549.88;4977731;28;1137;-30
2022/11/21 05:52:30;;;;;;;;;;;;;;;26.46;33.42;99538.28;4985382;28;1396;-35
2022/11/21 05:54:55;;;;;;;;;;;;;;;26.51;33.33;99543.84;4979544;28;908;-35
2022/11/21 05:57:21;;;;;;;;;;;;;;;26.58;33.29;99535.75;4977741;28;1141;-31
2022/11/21 05:59:46;;;;;;;;;;;;;;;26.61;33.28;99530.78;4977985;28;1125;-32
2022/11/21 06:04:55;;;;;;;;;;;;;;;26.58;33.31;99539.31;4969784;28;1248;-32
2022/11/21 06:07:20;;;;;;;;;;;;;;;26.56;33.26;99548.66;4976999;28;1957;-36
2022/11/21 06:09:46;;;;;;;;;;;;;;;26.58;33.05;99549.25;4976708;28;1429;-36
2022/11/21 06:12:11;;;;;;;;;;;;;;;26.60;33.22;99552.56;4977442;28;1264;-33
2022/11/21 06:14:36;;;;;;;;;;;;;;;26.60;33.02;99552.56;4976505;28;1533;-31
2022/11/21 06:17:01;;;;;;;;;;;;;;;26.56;33.21;99570.22;4976710;28;983;-30
2022/11/21 06:19:27;;;;;;;;;;;;;;;26.67;33.08;99571.44;4976601;28;1577;-33
2022/11/21 06:21:52;;;;;;;;;;;;;;;26.63;33.08;99596.16;4976756;28;1116;-32
2022/11/21 06:24:17;;;;;;;;;;;;;;;26.73;33.72;99593.03;4976405;28;1521;-32
2022/11/21 06:26:42;;;;;;;;;;;;;;;26.61;33.10;99611.69;4977255;28;1098;-31
2022/11/21 06:29:11;;;;;;;;;;;;;;;26.61;33.42;99594.72;4977715;28;1918;-30
2022/11/21 06:31:36;;;;;;;;;;;;;;;26.48;34.07;99588.25;4976583;28;1148;-29
2022/11/21 06:34:02;;;;;;;;;;;;;;;26.53;33.81;99561.50;4976962;28;2253;-32
2022/11/21 06:36:28;;;;;;;;;;;;;;;26.53;33.52;99561.50;4977318;28;1094;-32
2022/11/21 06:38:53;;;;;;;;;;;;;;;26.49;33.87;99575.63;4977326;28;1274;-35
2022/11/21 06:41:19;;;;;;;;;;;;;;;26.51;34.01;99576.22;4977177;28;1158;-31
2022/11/21 06:43:45;;;;;;;;;;;;;;;26.54;34.16;99592.00;4977154;28;1137;-34
2022/11/21 06:46:10;;;;;;;;;;;;;;;26.52;33.91;99588.69;4977400;28;912;-32
2022/11/21 06:48:36;;;;;;;;;;;;;;;26.53;34.03;99579.53;4975878;28;1969;-34
2022/11/21 06:51:05;;;;;;;;;;;;;;;26.31;36.42;99587.78;4974438;28;1316;-30
2022/11/21 06:53:30;;;;;;;;;;;;;;;26.51;34.46;99582.44;4976542;28;908;-26
2022/11/21 06:55:59;;;;;;;;;;;;;;;26.43;35.25;99566.47;4977169;28;979;-29
2022/11/21 06:58:24;;;;;;;;;;;;;;;26.54;35.83;99559.66;4975011;28;1248;-28
2022/11/21 07:00:49;;;;;;;;;;;;;;;26.71;34.94;99572.72;4976847;28;1106;-27
2022/11/21 07:03:14;;;;;;;;;;;;;;;26.85;34.33;99582.44;4983474;28;2027;-29
2022/11/21 07:05:40;;;;;;;;;;;;;;;27.09;34.21;99596.31;4977359;28;1094;-22
2022/11/21 07:08:05;;;;;;;;;;;;;;;27.12;35.08;99601.31;4975678;28;1997;-29
2022/11/21 07:10:30;;;;;;;;;;;;;;;27.17;34.93;99597.97;4966602;28;1240;-27
2022/11/21 07:15:40;;;;;;;;;;;;;;;27.00;34.34;99601.09;4970519;28;1007;-23
2022/11/21 07:18:06;;;;;;;;;;;;;;;27.20;33.80;99604.81;4976898;28;1314;-22
2022/11/21 07:20:31;;;;;;;;;;;;;;;27.16;34.22;99604.41;4977321;28;1166;-23
2022/11/21 07:22:56;;;;;;;;;;;;;;;27.05;33.83;99595.09;4976353;28;1269;-24
2022/11/21 07:25:21;;;;;;;;;;;;;;;26.94;33.72;99584.91;4975969;28;1162;-23
2022/11/21 07:27:47;;;;;;;;;;;;;;;26.94;33.77;99596.56;4975431;28;1910;-23
2022/11/21 07:30:12;;;;;;;;;;;;;;;26.95;33.22;99584.72;4969669;28;1326;-24
2022/11/21 07:32:38;;;;;;;;;;;;;;;26.87;33.79;99593.03;4969307;28;1852;-23
2022/11/21 07:35:03;;;;;;;;;;;;;;;26.92;33.66;99585.13;4976248;28;1538;-23
2022/11/21 07:37:28;;;;;;;;;;;;;;;26.89;33.89;99594.47;4976208;28;1322;-23
2022/11/21 07:39:54;;;;;;;;;;;;;;;26.87;33.93;99595.72;4976422;28;1064;-22
2022/11/21 07:42:19;;;;;;;;;;;;;;;26.98;33.94;99584.28;4973925;28;1191;-23
2022/11/21 07:44:44;;;;;;;;;;;;;;;26.98;34.13;99591.53;4974504;28;1446;-24
2022/11/21 07:47:09;;;;;;;;;;;;;;;26.96;33.86;99585.53;4974094;28;1180;-23
2022/11/21 07:49:35;;;;;;;;;;;;;;;27.02;33.95;99574.78;4976635;28;1906;-23
2022/11/21 07:52:00;;;;;;;;;;;;;;;27.08;33.79;99585.75;4976878;28;1120;-23
2022/11/21 07:54:25;;;;;;;;;;;;;;;27.10;33.65;99584.50;4976164;28;1137;-24
2022/11/21 07:56:50;;;;;;;;;;;;;;;27.31;34.12;99587.97;4974649;28;1658;-23
2022/11/21 07:59:18;;;;;;;;;;;;;;;27.39;33.61;99582.31;4976174;28;1177;-23
2022/11/21 08:01:43;;;;;;;;;;;;;;;27.42;33.66;99591.88;4976433;28;2022;-23
2022/11/21 08:04:08;;;;;;;;;;;;;;;27.63;33.21;99574.53;4981114;28;1125;-37
2022/11/21 08:06:33;;;;;;;;;;;;;;;27.92;32.75;99576.91;4977381;28;1330;-36
2022/11/21 08:08:59;;;;;;;;;;;;;;;27.96;33.16;99575.44;4978807;28;1951;-37
2022/11/21 08:11:24;;;;;;;;;;;;;;;28.03;32.67;99559.16;4975576;28;1229;-34
2022/11/21 08:13:50;;;;;;;;;;;;;;;28.03;32.20;99563.78;4974501;28;1277;-34
2022/11/21 08:16:15;;;;;;;;;;;;;;;27.96;32.64;99572.72;4976130;28;975;-34
2022/11/21 08:18:40;;;;;;;;;;;;;;;27.87;32.73;99571.34;4978603;28;1149;-33
2022/11/21 08:21:06;;;;;;;;;;;;;;;27.89;32.79;99585.47;4978932;28;1078;-36
2022/11/21 08:23:31;;;;;;;;;;;;;;;28.05;33.02;99588.69;4977646;28;1121;-38
2022/11/21 08:25:56;;;;;;;;;;;;;;;28.06;32.73;99576.84;4978529;28;1144;-32
2022/11/21 08:28:22;;;;;;;;;;;;;;;28.08;32.87;99575.56;4976155;28;1915;-34
2022/11/21 08:30:47;;;;;;;;;;;;;;;28.16;32.75;99587.97;4977207;28;1186;-35
2022/11/21 08:33:12;;;;;;;;;;;;;;;27.95;33.30;99586.47;4975988;28;2030;-33
2022/11/21 08:35:38;;;;;;;;;;;;;;;27.84;33.32;99583.38;4977538;28;1430;-35
2022/11/21 08:38:03;;;;;;;;;;;;;;;27.83;33.34;99583.63;4976440;28;1228;-36
2022/11/21 08:40:29;;;;;;;;;;;;;;;27.86;33.45;99586.72;4973396;28;1160;-39
2022/11/21 08:42:57;;;;;;;;;;;;;;;27.94;33.53;99582.13;4978276;28;1121;-38
2022/11/21 08:45:23;;;;;;;;;;;;;;;28.08;33.19;99580.97;4978462;28;1137;-34
2022/11/21 08:47:48;;;;;;;;;;;;;;;28.02;33.32;99576.44;4978393;28;1959;-34
2022/11/21 08:50:14;;;;;;;;;;;;;;;28.21;33.48;99574.63;4978333;28;1105;-36
2022/11/21 08:52:39;;;;;;;;;;;;;;;28.03;33.55;99571.88;4978163;28;1170;-40
2022/11/21 08:55:04;;;;;;;;;;;;;;;28.17;33.57;99573.44;4978065;28;1019;-38
2022/11/21 08:57:30;;;;;;;;;;;;;;;28.21;32.75;99571.13;4977640;28;1421;-38
2022/11/21 08:59:55;;;;;;;;;;;;;;;28.21;33.52;99566.53;4978109;28;1190;-37
2022/11/21 09:02:21;;;;;;;;;;;;;;;28.10;33.18;99575.34;4974265;28;1865;-39
2022/11/21 09:04:46;;;;;;;;;;;;;;;28.33;33.48;99574.78;4978415;28;1134;-34
2022/11/21 09:07:11;;;;;;;;;;;;;;;28.38;33.36;99571.44;4980554;28;1196;-36
2022/11/21 09:09:36;;;;;;;;;;;;;;;28.46;33.38;99570.34;4978354;28;1902;-37
2022/11/21 09:12:02;;;;;;;;;;;;;;;28.43;33.18;99563.47;4978527;28;1133;-39
2022/11/21 09:19:55;;;;;;;;;;;;;;;28.40;33.34;99525.22;4977767;28;1191;-39
2022/11/21 09:22:20;;;;;;;;;;;;;;;28.34;33.55;99533.16;4978564;28;1153;-37
2022/11/21 09:24:46;;;;;;;;;;;;;;;28.34;33.78;99524.25;4959562;28;1630;-38
2022/11/21 09:27:11;;;;;;;;;;;;;;;28.32;33.13;99523.59;4978086;28;1165;-40
2022/11/21 09:29:36;;;;;;;;;;;;;;;28.16;32.49;99517.69;4977240;28;1973;-39
2022/11/21 09:32:03;;;;;;;;;;;;;;;28.24;32.84;99513.91;4977792;28;1833;-39
2022/11/21 09:34:30;;;;;;;;;;;;;;;28.26;32.44;99516.38;4978470;28;1218;-37
2022/11/21 09:36:55;;;;;;;;;;;;;;;28.17;32.62;99507.72;4977916;28;1257;-38
2022/11/21 09:39:21;;;;;;;;;;;;;;;28.29;32.90;99507.81;4977559;28;1236;-36
2022/11/21 09:41:52;;;;;;;;;;;;;;;28.34;32.38;99502.63;4978794;28;1147;-38
2022/11/21 09:44:40;;;;;;;;;;;;;;;28.28;32.50;99495.38;4967276;28;896;-38
2022/11/21 09:47:17;;;;;;;;;;;;;;;28.22;32.95;99489.78;4956188;28;1300;-38
2022/11/21 09:49:45;;;;;;;;;;;;;;;28.25;32.02;99483.09;4977837;28;1907;-38
2022/11/21 09:52:11;;;;;;;;;;;;;;;28.10;32.51;99476.16;4961206;28;1269;-38
2022/11/21 09:54:45;;;;;;;;;;;;;;;28.27;32.36;99472.06;4960856;28;1238;-36
2022/11/21 09:57:10;;;;;;;;;;;;;;;28.09;32.23;99481.78;4977603;28;1150;-38
2022/11/21 09:59:36;;;;;;;;;;;;;;;28.01;32.49;99482.88;4978004;28;846;-38
2022/11/21 10:02:01;;;;;;;;;;;;;;;27.23;33.20;99481.03;4975489;28;1774;-33
2022/11/21 10:04:27;;;;;;;;;;;;;;;27.14;33.64;99479.63;4958143;28;1260;-36
2022/11/21 10:06:55;;;;;;;;;;;;;;;26.84;33.73;99459.34;4976685;28;1010;-36
2022/11/21 10:09:24;;;;;;;;;;;;;;;26.82;33.91;99455.22;4973362;28;1910;-32
2022/11/21 10:15:06;;;;;;;;;;;;;;;27.31;33.39;99471.84;4968095;28;1023;-34
2022/11/21 10:17:38;;;;;;;;;;;;;;;27.31;33.29;99460.25;4977377;28;1114;-32
2022/11/21 10:20:22;;;;;;;;;;;;;;;27.30;33.21;99445.06;4977033;28;1118;-32
2022/11/21 10:23:06;;;;;;;;;;;;;;;27.27;33.42;99454.44;4976925;28;1292;-34
2022/11/21 10:25:34;;;;;;;;;;;;;;;27.13;33.18;99451.81;4977022;28;1105;-37
2022/11/21 10:28:01;;;;;;;;;;;;;;;27.07;33.73;99438.34;4977023;28;1911;-37
2022/11/21 10:30:28;;;;;;;;;;;;;;;27.00;33.61;99430.25;4976835;28;1106;-36
2022/11/21 10:32:55;;;;;;;;;;;;;;;27.04;33.67;99436.06;4959499;28;1786;-35
2022/11/21 10:35:34;;;;;;;;;;;;;;;27.06;33.49;99425.91;4960132;28;1555;-32
2022/11/21 10:38:00;;;;;;;;;;;;;;;27.01;33.79;99445.38;4960147;28;1130;-32
2022/11/21 10:40:32;;;;;;;;;;;;;;;26.93;34.19;99441.06;4975564;28;1203;-33
2022/11/21 10:42:59;;;;;;;;;;;;;;;26.92;33.83;99427.78;4973578;28;1231;-35
2022/11/21 10:45:24;;;;;;;;;;;;;;;26.92;33.97;99435.88;4956833;28;1216;-35
2022/11/21 10:47:49;;;;;;;;;;;;;;;26.92;34.11;99431.31;4976283;28;2083;-33
2022/11/21 10:50:27;;;;;;;;;;;;;;;26.90;33.96;99425.31;4976568;28;1152;-38
2022/11/21 10:52:56;;;;;;;;;;;;;;;26.86;33.80;99416.00;4959523;28;1164;-33
2022/11/21 10:55:21;;;;;;;;;;;;;;;26.87;34.08;99437.38;4975551;28;1331;-32
2022/11/21 10:57:47;;;;;;;;;;;;;;;26.99;35.02;99428.59;4976490;28;898;-35
2022/11/21 11:00:15;;;;;;;;;;;;;;;27.07;35.65;99417.59;4974917;28;1353;-34
2022/11/21 11:02:41;;;;;;;;;;;;;;;27.13;35.40;99416.72;4976818;28;1773;-32
2022/11/21 11:05:15;;;;;;;;;;;;;;;27.14;35.79;99420.25;4976385;28;1122;-32
2022/11/21 11:07:40;;;;;;;;;;;;;;;27.14;35.89;99414.84;4976882;28;1910;-35
2022/11/21 11:10:21;;;;;;;;;;;;;;;27.21;35.50;99410.22;4975720;28;1179;-37
2022/11/21 11:15:31;;;;;;;;;;;;;;;27.16;35.47;99417.34;4966095;28;1493;-37
2022/11/21 11:17:57;;;;;;;;;;;;;;;26.99;35.34;99421.31;4976779;28;1047;-30
2022/11/21 11:20:35;;;;;;;;;;;;;;;27.02;35.58;99415.53;4964779;28;1235;-34
2022/11/21 11:23:19;;;;;;;;;;;;;;;27.23;35.03;99412.72;4975243;28;1370;-35
2022/11/21 11:25:48;;;;;;;;;;;;;;;27.20;34.88;99408.59;4973231;28;1184;-33
2022/11/21 11:28:13;;;;;;;;;;;;;;;27.09;35.44;99409.28;4975946;28;1966;-33
2022/11/21 11:30:38;;;;;;;;;;;;;;;26.92;35.76;99403.50;4970092;28;1269;-35
2022/11/21 11:33:04;;;;;;;;;;;;;;;26.82;35.94;99399.41;4968784;28;2057;-35
2022/11/21 11:35:29;;;;;;;;;;;;;;;26.72;36.64;99402.56;4959459;28;1185;-31
2022/11/21 11:37:59;;;;;;;;;;;;;;;26.78;36.69;99401.69;4960636;28;1138;-29
2022/11/21 11:40:38;;;;;;;;;;;;;;;26.95;36.50;99395.81;4970923;28;1178;-32
2022/11/21 11:48:42;;;;;;;;;;;;;;;25.89;39.13;99386.69;4962478;28;1894;-32
2022/11/21 11:51:21;;;;;;;;;;;;;;;25.76;39.38;99384.84;4965577;28;1102;-32
2022/11/21 11:53:48;;;;;;;;;;;;;;;25.60;40.12;99379.84;4960444;28;1138;-29
2022/11/21 11:56:19;;;;;;;;;;;;;;;25.56;40.96;99401.78;4979140;28;1193;-35
2022/11/21 11:58:56;;;;;;;;;;;;;;;25.56;41.64;99395.56;4962479;28;1170;-33
2022/11/21 12:01:22;;;;;;;;;;;;;;;25.36;40.98;99393.69;4979516;28;1212;-31
2022/11/21 12:03:49;;;;;;;;;;;;;;;25.63;40.79;99391.06;4980157;28;1158;-31
2022/11/21 12:06:16;;;;;;;;;;;;;;;25.43;41.50;99389.16;4962741;28;1158;-31
2022/11/21 12:08:43;;;;;;;;;;;;;;;25.53;41.28;99387.91;4950933;28;1950;-35
2022/11/21 12:15:47;;;;;;;;;;;;;;;25.58;39.71;99381.91;4978746;28;1094;-34
2022/11/21 12:17:04;;;;;;;;;;;;;;;25.87;39.45;99387.97;4978646;28;1138;-36
2022/11/21 12:19:29;;;;;;;;;;;;;;;24.99;41.42;99420.91;4978325;28;1195;-30
2022/11/21 12:21:55;;;;;;;;;;;;;;;25.18;38.95;99426.56;4964660;28;1378;-31
2022/11/21 12:24:21;;;;;;;;;;;;;;;26.24;36.10;99422.56;4979259;28;1278;-31
2022/11/21 12:26:52;;;;;;;;;;;;;;;26.42;35.32;99430.00;4962639;28;1202;-33
2022/11/21 12:29:33;;;;;;;;;;;;;;;26.51;35.18;99436.00;4977307;28;1973;-30
2022/11/21 12:32:08;;;;;;;;;;;;;;;26.21;35.89;99448.03;4952260;28;1454;-29
2022/11/21 12:34:36;;;;;;;;;;;;;;;26.29;35.45;99452.41;4977599;28;1231;-32
2022/11/21 12:37:01;;;;;;;;;;;;;;;26.55;35.83;99456.13;4976891;28;1196;-32
2022/11/21 12:39:26;;;;;;;;;;;;;;;26.86;35.41;99449.19;4978716;28;1123;-31
2022/11/21 12:45:28;;;;;;;;;;;;;;;27.06;34.55;99464.50;4964502;28;1228;-29
2022/11/21 12:54:32;;;;;;;;;;;;;;;27.18;35.23;99483.53;4936363;28;1136;-32
2022/11/21 12:57:08;;;;;;;;;;;;;;;27.17;34.99;99494.56;4977138;28;1210;-30
2022/11/21 12:59:39;;;;;;;;;;;;;;;27.21;35.44;99515.50;4959827;28;1228;-33
2022/11/21 13:02:20;;;;;;;;;;;;;;;27.14;35.31;99517.44;4975036;28;1176;-31
2022/11/21 13:04:45;;;;;;;;;;;;;;;27.04;35.32;99531.38;4975043;28;1323;-31
2022/11/21 13:07:10;;;;;;;;;;;;;;;27.16;35.03;99536.91;4972471;28;1311;-31
2022/11/21 13:09:37;;;;;;;;;;;;;;;27.09;35.22;99528.84;4977789;28;2006;-33
2022/11/21 13:12:06;;;;;;;;;;;;;;;27.00;35.23;99546.28;4960289;28;1295;-30
2022/11/21 13:14:35;;;;;;;;;;;;;;;27.09;35.20;99550.44;4960838;28;1387;-30
2022/11/21 13:17:18;;;;;;;;;;;;;;;26.82;34.95;99563.13;4965122;28;1284;-30
2022/11/21 13:19:48;;;;;;;;;;;;;;;26.53;34.33;99566.91;4967304;28;1166;-30
2022/11/21 13:22:33;;;;;;;;;;;;;;;26.42;34.26;99567.53;4961205;28;1525;-30
2022/11/21 13:24:59;;;;;;;;;;;;;;;26.64;34.59;99570.00;4976673;28;1247;-29
2022/11/21 13:27:25;;;;;;;;;;;;;;;26.80;34.50;99570.59;4970699;28;1102;-32
2022/11/21 13:30:05;;;;;;;;;;;;;;;26.63;34.53;99585.38;4970431;28;1918;-31
2022/11/21 13:32:46;;;;;;;;;;;;;;;26.85;34.36;99582.44;4974193;28;1245;-32
2022/11/21 13:35:20;;;;;;;;;;;;;;;27.02;34.98;99584.72;4957720;28;1361;-31